createdAt,value
2019-02-23T00:02:23.942Z,6.27
2019-02-23T00:05:04.339Z,5.50
2019-02-23T00:07:45.540Z,7.97
2019-02-23T00:10:26.397Z,6.53
2019-02-23T00:13:07.024Z,10.20
2019-02-23T00:15:47.633Z,6.67
2019-02-23T00:18:28.279Z,6.20
2019-02-23T00:21:09.091Z,5.03
2019-02-23T00:23:49.714Z,5.67
2019-02-23T00:26:30.251Z,6.70
2019-02-23T00:29:11.279Z,6.40
2019-02-23T00:31:52.015Z,5.53
2019-02-23T00:34:32.486Z,7.50
2019-02-23T00:37:12.886Z,8.23
2019-02-23T00:39:53.150Z,5.57
2019-02-23T00:42:33.931Z,6.30
2019-02-23T00:45:14.624Z,7.00
2019-02-23T00:47:55.382Z,7.60
2019-02-23T00:50:36.245Z,7.23
2019-02-23T00:53:16.760Z,11.03
2019-02-23T00:55:57.616Z,12.60
2019-02-23T00:58:38.418Z,14.33
2019-02-23T01:01:19.417Z,7.53
2019-02-23T01:03:59.794Z,8.97
2019-02-23T01:06:40.443Z,6.67
2019-02-23T01:09:21.351Z,5.97
2019-02-23T01:12:02.105Z,6.23
2019-02-23T01:14:42.672Z,5.87
2019-02-23T01:17:23.629Z,7.33
2019-02-23T01:20:04.654Z,7.70
2019-02-23T01:22:45.414Z,7.03
2019-02-23T01:25:26.439Z,6.57
2019-02-23T01:28:07.331Z,6.63
2019-02-23T01:30:48.201Z,7.43
2019-02-23T01:33:29.310Z,8.50
2019-02-23T01:36:10.355Z,6.77
2019-02-23T01:38:51.267Z,7.83
2019-02-23T01:41:31.895Z,8.53
2019-02-23T01:44:12.450Z,7.97
2019-02-23T01:46:52.967Z,5.90
2019-02-23T01:49:33.932Z,7.70
2019-02-23T01:52:14.588Z,10.13
2019-02-23T01:54:54.971Z,8.10
2019-02-23T01:57:35.986Z,8.50
2019-02-23T02:00:17.054Z,6.97
2019-02-23T02:02:57.384Z,6.83
2019-02-23T02:05:37.831Z,5.80
2019-02-23T02:08:18.475Z,6.40
2019-02-23T02:10:59.106Z,8.43
2019-02-23T02:13:39.950Z,7.37
2019-02-23T02:16:20.612Z,6.60
2019-02-23T02:19:01.230Z,9.57
2019-02-23T02:21:41.880Z,9.67
2019-02-23T02:24:22.798Z,10.83
2019-02-23T02:27:03.995Z,7.17
2019-02-23T02:29:44.555Z,9.97
2019-02-23T02:32:25.498Z,7.10
2019-02-23T02:35:06.290Z,8.20
2019-02-23T02:37:47.020Z,7.47
2019-02-23T02:40:27.820Z,8.23
2019-02-23T02:43:08.294Z,7.43
2019-02-23T02:45:49.203Z,8.10
2019-02-23T02:48:29.865Z,7.20
2019-02-23T02:51:10.218Z,6.90
2019-02-23T02:53:50.681Z,8.47
2019-02-23T02:56:31.662Z,7.63
2019-02-23T02:59:12.087Z,7.57
2019-02-23T03:01:52.622Z,8.73
2019-02-23T03:07:16.204Z,8.57
2019-02-23T03:09:57.160Z,7.73
2019-02-23T03:12:37.870Z,7.90
2019-02-23T03:15:18.919Z,7.60
2019-02-23T03:17:59.663Z,9.00
2019-02-23T03:20:40.207Z,8.50
2019-02-23T03:23:21.195Z,8.70
2019-02-23T03:26:01.727Z,9.63
2019-02-23T03:28:42.817Z,9.53
2019-02-23T03:31:23.580Z,8.00
2019-02-23T03:34:04.152Z,8.87
2019-02-23T03:36:45.156Z,10.03
2019-02-23T03:39:25.977Z,9.97
2019-02-23T03:42:06.621Z,13.17
2019-02-23T03:44:47.054Z,7.57
2019-02-23T03:47:27.922Z,7.70
2019-02-23T03:50:08.825Z,8.60
2019-02-23T03:52:49.415Z,9.00
2019-02-23T03:55:29.995Z,10.40
2019-02-23T03:58:10.435Z,8.47
2019-02-23T04:00:50.907Z,10.30
2019-02-23T04:03:31.779Z,9.63
2019-02-23T04:06:12.623Z,6.77
2019-02-23T04:08:53.692Z,8.77
2019-02-23T04:11:34.407Z,9.87
2019-02-23T04:14:15.180Z,8.50
2019-02-23T04:16:56.164Z,11.20
2019-02-23T04:19:37.040Z,10.43
2019-02-23T04:22:17.294Z,9.67
2019-02-23T04:24:58.221Z,8.57
2019-02-23T04:27:39.312Z,11.80
2019-02-23T04:30:20.067Z,10.23
2019-02-23T04:33:00.670Z,9.67
2019-02-23T04:35:41.709Z,9.83
2019-02-23T04:38:22.578Z,8.63
2019-02-23T04:41:03.546Z,9.73
2019-02-23T04:43:44.455Z,10.63
2019-02-23T04:46:25.196Z,9.80
2019-02-23T04:49:05.971Z,10.30
2019-02-23T04:51:46.338Z,10.73
2019-02-23T04:54:26.946Z,10.57
2019-02-23T04:57:07.833Z,12.97
2019-02-23T04:59:48.267Z,10.13
2019-02-23T05:02:29.110Z,10.63
2019-02-23T05:05:09.986Z,9.80
2019-02-23T05:07:50.514Z,12.83
2019-02-23T05:10:31.207Z,9.20
2019-02-23T05:13:12.135Z,11.13
2019-02-23T05:15:52.633Z,10.67
2019-02-23T05:18:33.434Z,10.80
2019-02-23T05:21:25.712Z,10.73
2019-02-23T05:23:57.075Z,12.53
2019-02-23T05:26:37.989Z,10.93
2019-02-23T05:29:18.596Z,13.33
2019-02-23T05:31:59.413Z,12.93
2019-02-23T05:34:40.157Z,12.00
2019-02-23T05:37:20.616Z,10.93
2019-02-23T05:40:01.537Z,11.50
2019-02-23T05:42:42.156Z,9.50
2019-02-23T05:45:22.775Z,10.33
2019-02-23T05:48:03.750Z,11.07
2019-02-23T05:50:44.496Z,12.67
2019-02-23T05:53:25.088Z,10.10
2019-02-23T05:56:05.971Z,12.13
2019-02-23T05:58:46.757Z,13.40
2019-02-23T06:01:27.403Z,12.37
2019-02-23T06:04:08.133Z,10.80
2019-02-23T06:06:48.833Z,12.87
2019-02-23T06:09:29.675Z,11.53
2019-02-23T06:12:10.387Z,10.03
2019-02-23T06:14:51.183Z,14.00
2019-02-23T06:20:14.951Z,11.27
2019-02-23T06:22:55.720Z,11.63
2019-02-23T06:25:36.773Z,11.93
2019-02-23T06:28:17.638Z,11.90
2019-02-23T06:30:58.144Z,11.87
2019-02-23T06:33:39.314Z,16.87
2019-02-23T06:36:19.688Z,17.47
2019-02-23T06:39:00.620Z,13.47
2019-02-23T06:41:41.354Z,15.70
2019-02-23T06:44:22.278Z,10.83
2019-02-23T06:47:03.208Z,11.20
2019-02-23T06:49:43.702Z,15.63
2019-02-23T06:52:24.569Z,14.07
2019-02-23T06:55:05.585Z,18.63
2019-02-23T06:57:46.141Z,14.60
2019-02-23T07:00:26.491Z,12.77
2019-02-23T07:03:06.779Z,13.73
2019-02-23T07:05:47.629Z,14.23
2019-02-23T07:08:28.370Z,13.10
2019-02-23T07:11:09.249Z,14.57
2019-02-23T07:13:50.242Z,15.53
2019-02-23T07:16:30.953Z,13.63
2019-02-23T07:19:11.886Z,11.27
2019-02-23T07:21:52.757Z,15.13
2019-02-23T07:24:33.290Z,14.67
2019-02-23T07:27:13.679Z,12.40
2019-02-23T07:29:54.554Z,18.93
2019-02-23T07:32:35.025Z,11.90
2019-02-23T07:35:15.883Z,14.47
2019-02-23T07:37:56.603Z,12.17
2019-02-23T07:40:36.955Z,14.67
2019-02-23T07:43:17.408Z,14.83
2019-02-23T07:45:58.238Z,14.33
2019-02-23T07:48:38.909Z,13.67
2019-02-23T07:51:19.750Z,14.70
2019-02-23T07:54:00.649Z,12.20
2019-02-23T07:56:41.171Z,13.23
2019-02-23T07:59:21.915Z,13.00
2019-02-23T08:02:02.867Z,15.07
2019-02-23T08:04:43.841Z,13.83
2019-02-23T08:07:24.287Z,14.30
2019-02-23T08:10:04.999Z,13.77
2019-02-23T08:12:45.827Z,13.60
2019-02-23T08:15:26.782Z,18.20
2019-02-23T08:18:07.412Z,9.97
2019-02-23T08:20:48.311Z,11.80
2019-02-23T08:23:28.841Z,13.40
2019-02-23T08:26:09.423Z,11.20
2019-02-23T08:28:49.938Z,13.53
2019-02-23T08:31:30.842Z,12.37
2019-02-23T08:34:11.820Z,10.27
2019-02-23T08:36:52.708Z,10.60
2019-02-23T08:39:33.392Z,12.17
2019-02-23T08:42:14.433Z,10.63
2019-02-23T08:44:54.863Z,11.60
2019-02-23T08:47:35.509Z,10.10
2019-02-23T08:50:16.484Z,15.57
2019-02-23T08:52:57.012Z,11.00
2019-02-23T08:55:37.498Z,10.17
2019-02-23T08:58:18.015Z,11.57
2019-02-23T09:00:58.711Z,12.00
2019-02-23T09:03:39.322Z,12.50
2019-02-23T09:06:19.966Z,11.10
2019-02-23T09:09:00.392Z,9.10
2019-02-23T09:11:41.369Z,10.90
2019-02-23T09:14:22.191Z,14.17
2019-02-23T09:17:03.040Z,12.10
2019-02-23T09:19:43.638Z,12.17
2019-02-23T09:22:24.541Z,9.63
2019-02-23T09:25:05.031Z,10.50
2019-02-23T09:27:45.729Z,10.23
2019-02-23T09:30:26.867Z,10.77
2019-02-23T09:33:07.940Z,9.93
2019-02-23T09:35:48.875Z,12.43
2019-02-23T09:38:29.733Z,14.77
2019-02-23T09:41:10.501Z,10.30
2019-02-23T09:43:51.151Z,9.03
2019-02-23T09:46:31.907Z,8.30
2019-02-23T09:49:12.548Z,10.73
2019-02-23T09:51:53.223Z,9.30
2019-02-23T09:54:33.775Z,13.43
2019-02-23T09:57:14.408Z,8.63
2019-02-23T09:59:54.922Z,11.53
2019-02-23T10:02:35.761Z,11.37
2019-02-23T10:05:16.325Z,8.80
2019-02-23T10:07:57.370Z,10.90
2019-02-23T10:10:38.124Z,8.57
2019-02-23T10:13:19.168Z,11.00
2019-02-23T10:15:59.719Z,11.67
2019-02-23T10:18:40.697Z,7.90
2019-02-23T10:21:21.522Z,12.63
2019-02-23T10:24:02.236Z,9.53
2019-02-23T10:26:42.927Z,13.53
2019-02-23T10:29:23.639Z,9.37
2019-02-23T10:32:04.427Z,11.17
2019-02-23T10:34:45.069Z,13.47
2019-02-23T10:37:26.086Z,17.23
2019-02-23T10:40:06.947Z,9.47
2019-02-23T10:42:47.379Z,11.47
2019-02-23T10:45:28.051Z,9.90
2019-02-23T10:48:08.824Z,10.00
2019-02-23T10:50:49.308Z,10.70
2019-02-23T10:53:32.744Z,8.30
2019-02-23T10:56:12.556Z,10.40
2019-02-23T10:58:53.333Z,8.67
2019-02-23T11:01:34.232Z,9.37
2019-02-23T11:04:15.031Z,6.97
2019-02-23T11:06:56.082Z,8.57
2019-02-23T11:09:36.923Z,10.03
2019-02-23T11:12:18.079Z,8.23
2019-02-23T11:14:59.087Z,9.33
2019-02-23T11:17:39.750Z,9.47
2019-02-23T11:20:20.474Z,9.33
2019-02-23T11:23:01.161Z,8.17
2019-02-23T11:25:42.008Z,7.67
2019-02-23T11:28:22.911Z,9.67
2019-02-23T11:31:03.723Z,6.93
2019-02-23T11:33:44.736Z,8.23
2019-02-23T11:36:25.024Z,7.27
2019-02-23T11:39:05.934Z,8.93
2019-02-23T11:41:46.445Z,8.53
2019-02-23T11:44:27.026Z,8.00
2019-02-23T11:47:07.756Z,7.13
2019-02-23T11:49:48.652Z,8.93
2019-02-23T11:52:29.591Z,7.80
2019-02-23T11:55:10.302Z,7.97
2019-02-23T11:57:51.008Z,6.13
2019-02-23T12:00:31.860Z,6.20
2019-02-23T12:03:12.711Z,5.97
2019-02-23T12:05:53.438Z,8.33
2019-02-23T12:08:34.175Z,6.23
2019-02-23T12:11:15.112Z,5.80
2019-02-23T12:13:56.008Z,8.93
2019-02-23T12:16:36.577Z,7.27
2019-02-23T12:19:17.223Z,7.80
2019-02-23T12:21:57.699Z,7.50
2019-02-23T12:24:38.417Z,7.67
2019-02-23T12:27:19.083Z,9.87
2019-02-23T12:30:00.115Z,6.50
2019-02-23T12:32:40.543Z,5.70
2019-02-23T12:35:21.109Z,6.90
2019-02-23T12:38:02.021Z,6.43
2019-02-23T12:40:42.877Z,8.20
2019-02-23T12:43:23.689Z,8.33
2019-02-23T12:46:04.073Z,6.60
2019-02-23T12:48:44.551Z,6.70
2019-02-23T12:51:25.150Z,7.20
2019-02-23T12:54:16.502Z,7.33
2019-02-23T12:56:48.151Z,8.77
2019-02-23T12:59:28.782Z,7.27
2019-02-23T13:02:09.657Z,6.67
2019-02-23T13:04:50.114Z,5.67
2019-02-23T13:07:30.500Z,6.60
2019-02-23T13:10:11.579Z,6.07
2019-02-23T13:12:52.471Z,6.63
2019-02-23T13:15:33.357Z,7.07
2019-02-23T13:18:14.232Z,7.60
2019-02-23T13:20:55.082Z,7.17
2019-02-23T13:23:35.792Z,7.23
2019-02-23T13:26:16.589Z,5.93
2019-02-23T13:28:57.687Z,7.37
2019-02-23T13:31:38.686Z,6.23
2019-02-23T13:34:19.408Z,6.30
2019-02-23T13:37:01.855Z,8.10
2019-02-23T13:39:42.664Z,6.30
2019-02-23T13:42:23.171Z,6.50
2019-02-23T13:45:03.659Z,6.27
2019-02-23T13:47:44.101Z,7.13
2019-02-23T13:50:24.663Z,6.93
2019-02-23T13:53:05.063Z,7.80
2019-02-23T13:55:45.823Z,8.20
2019-02-23T13:58:26.595Z,6.30
2019-02-23T14:01:07.551Z,8.50
2019-02-23T14:03:48.440Z,5.80
2019-02-23T14:06:29.070Z,6.00
2019-02-23T14:09:36.198Z,6.10
2019-02-23T14:12:17.409Z,5.70
2019-02-23T14:14:58.637Z,6.70
2019-02-23T14:17:39.393Z,6.57
2019-02-23T14:20:20.298Z,6.60
2019-02-23T14:23:01.157Z,6.17
2019-02-23T14:25:41.656Z,5.20
2019-02-23T14:28:22.427Z,5.20
2019-02-23T14:31:03.317Z,4.63
2019-02-23T14:33:44.143Z,5.73
2019-02-23T14:36:24.759Z,6.27
2019-02-23T14:39:05.176Z,5.63
2019-02-23T14:41:46.000Z,4.87
2019-02-23T14:44:26.858Z,7.80
2019-02-23T14:47:08.115Z,7.33
2019-02-23T14:49:50.046Z,7.47
2019-02-23T14:52:31.238Z,5.40
2019-02-23T14:55:11.922Z,7.83
2019-02-23T14:57:52.913Z,9.63
2019-02-23T15:00:33.800Z,8.07
2019-02-23T15:03:14.626Z,7.27
2019-02-23T15:05:55.178Z,6.47
2019-02-23T15:08:35.651Z,6.80
2019-02-23T15:11:16.334Z,6.30
2019-02-23T15:13:57.011Z,6.43
2019-02-23T15:16:37.378Z,6.40
2019-02-23T15:19:18.246Z,6.07
2019-02-23T15:22:25.402Z,6.30
2019-02-23T15:25:32.513Z,6.77
2019-02-23T15:28:24.894Z,7.13
2019-02-23T15:30:56.138Z,7.47
2019-02-23T15:33:36.472Z,8.10
2019-02-23T15:36:17.083Z,6.97
2019-02-23T15:38:57.628Z,6.87
2019-02-23T15:41:38.298Z,6.23
2019-02-23T15:44:21.513Z,6.00
2019-02-23T15:47:01.308Z,7.60
2019-02-23T15:49:42.055Z,6.03
2019-02-23T15:52:22.783Z,7.77
2019-02-23T15:55:03.889Z,6.47
2019-02-23T15:57:44.924Z,8.07
2019-02-23T16:00:25.375Z,8.17
2019-02-23T16:03:06.137Z,6.60
2019-02-23T16:05:46.410Z,6.87
2019-02-23T16:08:27.361Z,8.23
2019-02-23T16:11:07.855Z,7.87
2019-02-23T16:13:48.240Z,6.90
2019-02-23T16:16:29.141Z,8.47
2019-02-23T16:19:09.503Z,8.70
2019-02-23T16:21:52.820Z,7.17
2019-02-23T16:24:32.964Z,8.03
2019-02-23T16:27:13.878Z,10.13
2019-02-23T16:29:54.633Z,10.53
2019-02-23T16:32:35.070Z,8.90
2019-02-23T16:35:16.040Z,11.83
2019-02-23T16:37:56.964Z,9.70
2019-02-23T16:40:37.814Z,13.00
2019-02-23T16:43:18.707Z,10.00
2019-02-23T16:45:59.553Z,8.30
2019-02-23T16:48:40.754Z,10.80
2019-02-23T16:51:21.497Z,10.93
2019-02-23T16:54:02.338Z,11.90
2019-02-23T16:56:43.241Z,11.43
2019-02-23T16:59:24.023Z,10.80
2019-02-23T17:02:04.752Z,11.33
2019-02-23T17:04:53.469Z,12.17
2019-02-23T17:07:28.143Z,11.07
2019-02-23T17:10:09.099Z,10.83
2019-02-23T17:12:49.934Z,9.30
2019-02-23T17:15:30.515Z,12.50
2019-02-23T17:18:11.197Z,12.10
2019-02-23T17:20:51.999Z,9.50
2019-02-23T17:23:33.163Z,12.03
2019-02-23T17:26:14.140Z,8.83
2019-02-23T17:28:55.064Z,12.23
2019-02-23T17:31:35.847Z,10.10
2019-02-23T17:34:16.698Z,8.63
2019-02-23T17:36:57.391Z,11.47
2019-02-23T17:39:37.927Z,10.83
2019-02-23T17:42:27.691Z,11.53
2019-02-23T17:45:01.026Z,13.87
2019-02-23T17:47:42.017Z,13.70
2019-02-23T17:50:22.848Z,13.73
2019-02-23T17:53:03.663Z,13.30
2019-02-23T17:55:44.407Z,10.53
2019-02-23T17:58:24.971Z,11.97
2019-02-23T18:01:05.658Z,13.60
2019-02-23T18:03:46.624Z,14.07
2019-02-23T18:06:27.420Z,12.20
2019-02-23T18:09:08.557Z,10.93
2019-02-23T18:11:49.329Z,12.10
2019-02-23T18:14:30.162Z,9.33
2019-02-23T18:17:10.549Z,11.87
2019-02-23T18:19:51.593Z,11.57
2019-02-23T18:22:32.672Z,11.93
2019-02-23T18:25:13.369Z,10.70
2019-02-23T18:27:53.974Z,10.30
2019-02-23T18:30:35.652Z,11.03
2019-02-23T18:33:16.612Z,10.90
2019-02-23T18:35:57.013Z,12.13
2019-02-23T18:38:37.706Z,10.67
2019-02-23T18:41:18.406Z,11.03
2019-02-23T18:43:59.297Z,11.43
2019-02-23T18:46:40.044Z,14.17
2019-02-23T18:49:21.123Z,13.23
2019-02-23T18:52:01.619Z,14.50
2019-02-23T18:54:42.014Z,15.47
2019-02-23T18:57:22.503Z,14.50
2019-02-23T19:00:03.036Z,13.63
2019-02-23T19:02:43.673Z,11.43
2019-02-23T19:05:24.333Z,11.73
2019-02-23T19:08:04.977Z,14.97
2019-02-23T19:10:45.828Z,11.87
2019-02-23T19:13:26.379Z,13.77
2019-02-23T19:16:06.934Z,12.57
2019-02-23T19:18:47.188Z,11.57
2019-02-23T19:21:27.837Z,11.70
2019-02-23T19:24:08.636Z,11.20
2019-02-23T19:26:49.095Z,13.30
2019-02-23T19:29:29.935Z,13.63
2019-02-23T19:32:10.831Z,13.73
2019-02-23T19:34:51.863Z,13.47
2019-02-23T19:37:32.931Z,13.80
2019-02-23T19:40:13.695Z,13.33
2019-02-23T19:42:54.493Z,15.40
2019-02-23T19:45:35.000Z,15.73
2019-02-23T19:48:15.520Z,13.20
2019-02-23T19:50:56.063Z,15.67
2019-02-23T19:53:36.954Z,17.00
2019-02-23T19:56:17.727Z,14.77
2019-02-23T19:58:58.319Z,14.90
2019-02-23T20:01:39.191Z,12.10
2019-02-23T20:04:20.346Z,12.13
2019-02-23T20:07:01.469Z,13.13
2019-02-23T20:09:42.576Z,12.83
2019-02-23T20:12:23.437Z,15.77
2019-02-23T20:15:03.970Z,14.93
2019-02-23T20:17:44.828Z,14.70
2019-02-23T20:20:25.582Z,16.10
2019-02-23T20:23:06.564Z,15.83
2019-02-23T20:25:47.419Z,19.53
2019-02-23T20:28:28.470Z,17.30
2019-02-23T20:31:09.276Z,21.23
2019-02-23T20:33:50.244Z,18.43
2019-02-23T20:36:30.924Z,18.63
2019-02-23T20:39:11.330Z,18.33
2019-02-23T20:41:51.861Z,24.50
2019-02-23T20:44:32.681Z,20.63
2019-02-23T20:47:13.429Z,28.00
2019-02-23T20:49:53.920Z,21.83
2019-02-23T20:52:34.763Z,18.60
2019-02-23T20:55:15.501Z,19.30
2019-02-23T20:57:56.474Z,16.70
2019-02-23T21:00:37.475Z,14.77
2019-02-23T21:03:18.182Z,14.87
2019-02-23T21:05:58.743Z,21.23
2019-02-23T21:08:39.598Z,21.87
2019-02-23T21:11:20.165Z,21.93
2019-02-23T21:14:00.898Z,25.83
2019-02-23T21:16:41.462Z,48.43
2019-02-23T21:19:22.078Z,56.67
2019-02-23T21:22:03.134Z,41.90
2019-02-23T21:24:43.715Z,21.13
2019-02-23T21:27:24.465Z,21.17
2019-02-23T21:30:04.843Z,19.67
2019-02-23T21:32:45.785Z,14.63
2019-02-23T21:35:26.650Z,14.07
2019-02-23T21:38:07.578Z,17.47
2019-02-23T21:40:48.101Z,16.93
2019-02-23T21:43:28.477Z,20.57
2019-02-23T21:46:09.053Z,17.60
2019-02-23T21:48:49.968Z,18.07
2019-02-23T21:51:30.738Z,14.80
2019-02-23T21:54:11.515Z,14.47
2019-02-23T21:56:51.861Z,15.27
2019-02-23T21:59:32.537Z,17.30
2019-02-23T22:02:12.761Z,15.17
2019-02-23T22:04:53.638Z,14.77
2019-02-23T22:07:34.603Z,16.80
2019-02-23T22:10:15.155Z,17.27
2019-02-23T22:12:56.019Z,16.83
2019-02-23T22:15:36.596Z,14.30
2019-02-23T22:18:17.172Z,15.77
2019-02-23T22:20:57.623Z,18.13
2019-02-23T22:23:38.303Z,17.13
2019-02-23T22:26:19.075Z,16.67
2019-02-23T22:28:59.554Z,15.27
2019-02-23T22:31:39.837Z,13.77
2019-02-23T22:34:20.326Z,18.67
2019-02-23T22:37:00.961Z,14.63
2019-02-23T22:39:41.733Z,17.80
2019-02-23T22:42:22.573Z,17.23
2019-02-23T22:45:03.569Z,16.60
2019-02-23T22:47:44.071Z,16.60
2019-02-23T22:50:24.708Z,12.50
2019-02-23T22:53:05.216Z,15.97
2019-02-23T22:55:45.676Z,14.27
2019-02-23T22:58:26.753Z,19.57
2019-02-23T23:01:08.002Z,12.13
2019-02-23T23:03:49.059Z,13.90
2019-02-23T23:06:29.665Z,13.50
2019-02-23T23:09:11.974Z,14.47
2019-02-23T23:11:52.428Z,15.90
2019-02-23T23:14:33.131Z,15.00
2019-02-23T23:19:57.108Z,16.00
2019-02-23T23:22:37.896Z,18.87
2019-02-23T23:25:18.833Z,21.13
2019-02-23T23:27:59.437Z,15.93
2019-02-23T23:30:40.087Z,16.23
2019-02-23T23:33:21.088Z,15.07
2019-02-23T23:36:02.335Z,18.10
2019-02-23T23:38:43.278Z,14.83
2019-02-23T23:41:24.078Z,14.57
2019-02-23T23:44:04.623Z,14.93
2019-02-23T23:46:45.666Z,18.43
2019-02-23T23:49:26.707Z,13.47
2019-02-23T23:52:07.779Z,16.87
2019-02-23T23:54:48.848Z,15.10
2019-02-23T23:57:29.824Z,16.30
